createdAt,value
2018-02-07T00:00:59.401Z,16.46
2018-02-07T00:01:58.811Z,16.47
2018-02-07T00:02:59.261Z,16.44
2018-02-07T00:03:58.690Z,16.44
2018-02-07T00:04:59.119Z,16.44
2018-02-07T00:05:58.558Z,16.43
2018-02-07T00:06:59.011Z,16.44
2018-02-07T00:07:59.437Z,16.44
2018-02-07T00:08:58.886Z,16.42
2018-02-07T00:09:59.369Z,16.41
2018-02-07T00:10:58.765Z,16.42
2018-02-07T00:11:59.226Z,16.41
2018-02-07T00:12:58.652Z,16.4
2018-02-07T00:13:59.173Z,16.4
2018-02-07T00:15:58.824Z,16.37
2018-02-07T00:16:59.273Z,16.4
2018-02-07T00:17:58.895Z,16.37
2018-02-07T00:18:59.364Z,16.39
2018-02-07T00:19:58.812Z,16.37
2018-02-07T00:20:59.254Z,16.39
2018-02-07T00:21:58.672Z,16.34
2018-02-07T00:22:59.130Z,16.37
2018-02-07T00:23:58.545Z,16.33
2018-02-07T00:24:58.983Z,16.33
2018-02-07T00:25:59.417Z,16.34
2018-02-07T00:26:58.847Z,16.34
2018-02-07T00:27:59.261Z,16.33
2018-02-07T00:28:58.691Z,16.35
2018-02-07T00:29:59.113Z,16.34
2018-02-07T00:30:58.538Z,16.34
2018-02-07T00:31:58.991Z,16.34
2018-02-07T00:32:59.403Z,16.32
2018-02-07T00:33:58.933Z,16.32
2018-02-07T00:34:59.345Z,16.32
2018-02-07T00:35:58.789Z,16.3
2018-02-07T00:36:59.255Z,16.32
2018-02-07T00:37:58.679Z,16.31
2018-02-07T00:38:59.137Z,16.31
2018-02-07T00:39:58.579Z,16.33
2018-02-07T00:40:59.009Z,16.29
2018-02-07T00:41:59.440Z,16.31
2018-02-07T00:42:58.868Z,16.31
2018-02-07T00:43:59.324Z,16.29
2018-02-07T00:44:58.752Z,16.28
2018-02-07T00:45:59.160Z,16.3
2018-02-07T00:46:58.647Z,16.29
2018-02-07T00:47:59.093Z,16.29
2018-02-07T00:48:58.591Z,16.29
2018-02-07T00:49:59.030Z,16.29
2018-02-07T00:50:59.456Z,16.29
2018-02-07T00:51:58.863Z,16.3
2018-02-07T00:52:59.281Z,16.29
2018-02-07T00:53:58.710Z,16.28
2018-02-07T00:54:59.155Z,16.22
2018-02-07T00:55:58.582Z,16.25
2018-02-07T00:56:59.043Z,16.24
2018-02-07T00:57:58.570Z,16.24
2018-02-07T00:58:59.088Z,16.21
2018-02-07T00:59:58.567Z,16.22
2018-02-07T01:00:59.145Z,16.22
2018-02-07T01:01:58.616Z,16.24
2018-02-07T01:02:59.052Z,16.2
2018-02-07T01:03:58.483Z,16.22
2018-02-07T01:04:58.983Z,16.2
2018-02-07T01:05:59.401Z,16.21
2018-02-07T01:06:58.818Z,16.2
2018-02-07T01:07:59.269Z,16.21
2018-02-07T01:08:58.793Z,16.19
2018-02-07T01:09:59.262Z,16.2
2018-02-07T01:10:58.712Z,16.21
2018-02-07T01:11:59.148Z,16.21
2018-02-07T01:12:58.604Z,16.2
2018-02-07T01:13:59.027Z,16.22
2018-02-07T01:14:59.488Z,16.2
2018-02-07T01:15:58.960Z,16.19
2018-02-07T01:16:59.385Z,16.2
2018-02-07T01:17:58.832Z,16.19
2018-02-07T01:18:58.500Z,16.18
2018-02-07T01:19:58.948Z,16.16
2018-02-07T01:20:59.415Z,16.17
2018-02-07T01:21:58.830Z,16.17
2018-02-07T01:22:59.283Z,16.18
2018-02-07T01:23:58.738Z,16.18
2018-02-07T01:24:59.226Z,16.17
2018-02-07T01:25:58.655Z,16.18
2018-02-07T01:26:59.132Z,16.16
2018-02-07T01:27:58.552Z,16.14
2018-02-07T01:28:58.982Z,16.14
2018-02-07T01:29:59.416Z,16.16
2018-02-07T01:30:58.887Z,16.14
2018-02-07T01:31:59.318Z,16.14
2018-02-07T01:32:58.782Z,16.14
2018-02-07T01:33:59.225Z,16.1
2018-02-07T01:34:58.677Z,16.14
2018-02-07T01:35:59.119Z,16.13
2018-02-07T01:36:58.565Z,16.12
2018-02-07T01:37:58.991Z,16.12
2018-02-07T01:38:59.433Z,16.13
2018-02-07T01:39:58.879Z,16.12
2018-02-07T01:40:59.310Z,16.12
2018-02-07T01:41:58.732Z,16.1
2018-02-07T01:42:59.176Z,16.1
2018-02-07T01:43:58.609Z,16.08
2018-02-07T01:44:59.062Z,16.08
2018-02-07T01:45:58.525Z,16.07
2018-02-07T01:46:58.950Z,16.07
2018-02-07T01:47:59.361Z,16.07
2018-02-07T01:48:58.785Z,16.08
2018-02-07T01:49:59.215Z,16.07
2018-02-07T01:50:58.666Z,16.08
2018-02-07T01:51:59.079Z,16.08
2018-02-07T01:52:58.528Z,16.06
2018-02-07T01:53:58.907Z,16.05
2018-02-07T01:54:59.334Z,16.04
2018-02-07T01:55:58.869Z,16.05
2018-02-07T01:56:59.326Z,16.07
2018-02-07T01:57:58.772Z,16.04
2018-02-07T01:58:59.197Z,16.04
2018-02-07T01:59:58.617Z,16.06
2018-02-07T02:00:59.197Z,16.04
2018-02-07T02:01:58.634Z,16.03
2018-02-07T02:02:59.106Z,16.01
2018-02-07T02:03:58.540Z,16.02
2018-02-07T02:04:58.964Z,16.02
2018-02-07T02:05:59.406Z,16.01
2018-02-07T02:06:58.832Z,16.03
2018-02-07T02:07:59.261Z,16.04
2018-02-07T02:08:58.678Z,16.01
2018-02-07T02:09:59.096Z,16.03
2018-02-07T02:10:58.558Z,16.02
2018-02-07T02:11:58.988Z,16
2018-02-07T02:12:59.412Z,16
2018-02-07T02:13:58.843Z,15.99
2018-02-07T02:14:59.261Z,15.99
2018-02-07T02:15:58.679Z,16
2018-02-07T02:16:59.132Z,15.98
2018-02-07T02:17:58.563Z,15.99
2018-02-07T02:18:59.025Z,15.99
2018-02-07T02:19:58.653Z,15.99
2018-02-07T02:20:59.109Z,15.99
2018-02-07T02:21:58.551Z,15.97
2018-02-07T02:22:58.964Z,15.96
2018-02-07T02:23:59.394Z,16
2018-02-07T02:24:58.855Z,15.98
2018-02-07T02:25:59.275Z,15.95
2018-02-07T02:26:58.752Z,15.99
2018-02-07T02:27:59.199Z,15.97
2018-02-07T02:28:58.613Z,15.93
2018-02-07T02:29:59.082Z,15.97
2018-02-07T02:30:58.529Z,15.96
2018-02-07T02:31:58.982Z,15.96
2018-02-07T02:32:59.433Z,15.95
2018-02-07T02:33:58.929Z,16
2018-02-07T02:34:59.379Z,15.96
2018-02-07T02:35:58.819Z,15.98
2018-02-07T02:36:59.263Z,15.93
2018-02-07T02:37:58.698Z,15.92
2018-02-07T02:38:59.174Z,15.96
2018-02-07T02:39:58.621Z,15.91
2018-02-07T02:40:59.071Z,15.93
2018-02-07T02:41:58.520Z,15.93
2018-02-07T02:42:58.950Z,15.92
2018-02-07T02:43:59.374Z,15.91
2018-02-07T02:44:58.799Z,15.93
2018-02-07T02:45:59.238Z,15.93
2018-02-07T02:46:58.681Z,15.91
2018-02-07T02:47:59.128Z,15.91
2018-02-07T02:49:58.942Z,15.92
2018-02-07T02:50:59.375Z,15.93
2018-02-07T02:51:58.809Z,15.91
2018-02-07T02:52:59.259Z,15.91
2018-02-07T02:53:58.670Z,15.9
2018-02-07T02:54:59.066Z,15.91
2018-02-07T02:55:58.502Z,15.89
2018-02-07T02:56:58.924Z,15.9
2018-02-07T02:57:59.560Z,15.88
2018-02-07T02:58:59.116Z,15.91
2018-02-07T02:59:58.528Z,15.87
2018-02-07T03:00:58.961Z,15.87
2018-02-07T03:01:59.376Z,15.88
2018-02-07T03:02:58.825Z,15.88
2018-02-07T03:03:59.270Z,15.88
2018-02-07T03:04:58.689Z,15.88
2018-02-07T03:05:59.180Z,15.88
2018-02-07T03:06:58.615Z,15.88
2018-02-07T03:07:59.200Z,15.88
2018-02-07T03:08:58.622Z,15.88
2018-02-07T03:09:59.056Z,15.87
2018-02-07T03:10:58.501Z,15.86
2018-02-07T03:11:58.937Z,15.88
2018-02-07T03:12:59.401Z,15.86
2018-02-07T03:13:58.861Z,15.89
2018-02-07T03:14:59.271Z,15.86
2018-02-07T03:15:58.695Z,15.88
2018-02-07T03:16:59.138Z,15.87
2018-02-07T03:17:58.582Z,15.89
2018-02-07T03:18:59.006Z,15.84
2018-02-07T03:19:58.419Z,15.85
2018-02-07T03:20:59.086Z,15.87
2018-02-07T03:21:58.589Z,15.83
2018-02-07T03:22:59.034Z,15.83
2018-02-07T03:23:58.457Z,15.85
2018-02-07T03:24:58.871Z,15.85
2018-02-07T03:25:59.288Z,15.84
2018-02-07T03:26:58.688Z,15.83
2018-02-07T03:27:59.197Z,15.83
2018-02-07T03:28:58.628Z,15.85
2018-02-07T03:29:59.044Z,15.8
2018-02-07T03:30:58.464Z,15.81
2018-02-07T03:31:58.905Z,15.83
2018-02-07T03:32:59.346Z,15.82
2018-02-07T03:33:58.783Z,15.85
2018-02-07T03:34:59.200Z,15.81
2018-02-07T03:35:58.627Z,15.81
2018-02-07T03:36:59.067Z,15.8
2018-02-07T03:37:58.525Z,15.8
2018-02-07T03:38:58.955Z,15.77
2018-02-07T03:39:59.379Z,15.81
2018-02-07T03:40:58.881Z,15.81
2018-02-07T03:41:59.309Z,15.82
2018-02-07T03:42:58.769Z,15.81
2018-02-07T03:43:59.192Z,15.8
2018-02-07T03:44:58.595Z,15.81
2018-02-07T03:45:59.013Z,15.77
2018-02-07T03:46:58.431Z,15.8
2018-02-07T03:47:58.849Z,15.77
2018-02-07T03:48:59.345Z,15.77
2018-02-07T03:49:58.789Z,15.78
2018-02-07T03:50:59.211Z,15.77
2018-02-07T03:51:58.632Z,15.76
2018-02-07T03:52:59.120Z,15.77
2018-02-07T03:53:58.609Z,15.75
2018-02-07T03:54:59.025Z,15.75
2018-02-07T03:55:58.455Z,15.77
2018-02-07T03:56:58.891Z,15.78
2018-02-07T03:57:59.301Z,15.77
2018-02-07T03:58:58.739Z,15.78
2018-02-07T03:59:59.155Z,15.75
2018-02-07T04:01:58.862Z,15.74
2018-02-07T04:02:59.301Z,15.74
2018-02-07T04:03:58.742Z,15.75
2018-02-07T04:04:59.156Z,15.76
2018-02-07T04:05:58.595Z,15.75
2018-02-07T04:06:59.024Z,15.72
2018-02-07T04:07:58.506Z,15.77
2018-02-07T04:08:58.961Z,15.74
2018-02-07T04:09:59.403Z,15.74
2018-02-07T04:10:58.835Z,15.74
2018-02-07T04:11:59.266Z,15.72
2018-02-07T04:12:58.692Z,15.72
2018-02-07T04:13:59.143Z,15.72
2018-02-07T04:14:58.620Z,15.71
2018-02-07T04:15:59.049Z,15.72
2018-02-07T04:16:58.474Z,15.69
2018-02-07T04:17:58.914Z,15.71
2018-02-07T04:18:59.339Z,15.72
2018-02-07T04:19:58.945Z,15.7
2018-02-07T04:20:59.379Z,15.71
2018-02-07T04:21:59.033Z,15.69
2018-02-07T04:22:58.487Z,15.67
2018-02-07T04:23:58.931Z,15.7
2018-02-07T04:24:59.402Z,15.67
2018-02-07T04:25:58.825Z,15.67
2018-02-07T04:26:59.241Z,15.69
2018-02-07T04:27:58.685Z,15.67
2018-02-07T04:28:59.106Z,15.66
2018-02-07T04:29:58.545Z,15.68
2018-02-07T04:30:59.004Z,15.69
2018-02-07T04:31:58.435Z,15.66
2018-02-07T04:32:58.860Z,15.7
2018-02-07T04:33:59.279Z,15.68
2018-02-07T04:34:58.708Z,15.66
2018-02-07T04:35:59.138Z,15.66
2018-02-07T04:36:58.582Z,15.67
2018-02-07T04:37:59.005Z,15.65
2018-02-07T04:38:58.434Z,15.66
2018-02-07T04:39:58.960Z,15.62
2018-02-07T04:40:58.391Z,15.63
2018-02-07T04:41:58.824Z,15.65
2018-02-07T04:42:59.248Z,15.61
2018-02-07T04:43:58.704Z,15.63
2018-02-07T04:44:59.089Z,15.62
2018-02-07T04:45:58.505Z,15.6
2018-02-07T04:46:58.952Z,15.62
2018-02-07T04:47:58.363Z,15.59
2018-02-07T04:48:58.857Z,15.62
2018-02-07T04:49:59.301Z,15.58
2018-02-07T04:50:58.773Z,15.61
2018-02-07T04:51:59.204Z,15.62
2018-02-07T04:52:58.668Z,15.6
2018-02-07T04:53:59.113Z,15.62
2018-02-07T04:54:58.518Z,15.62
2018-02-07T04:55:58.983Z,15.62
2018-02-07T04:56:58.464Z,15.63
2018-02-07T04:57:58.883Z,15.65
2018-02-07T04:58:59.335Z,15.65
2018-02-07T04:59:58.850Z,15.67
2018-02-07T05:00:59.386Z,15.63
2018-02-07T05:01:58.809Z,15.66
2018-02-07T05:02:59.294Z,15.62
2018-02-07T05:03:58.819Z,15.62
2018-02-07T05:04:59.281Z,15.63
2018-02-07T05:05:58.715Z,15.63
2018-02-07T05:06:59.152Z,15.65
2018-02-07T05:07:58.605Z,15.66
2018-02-07T05:08:59.044Z,15.65
2018-02-07T05:09:58.522Z,15.66
2018-02-07T05:10:59.174Z,15.67
2018-02-07T05:11:58.601Z,15.68
2018-02-07T05:12:59.033Z,15.69
2018-02-07T05:13:58.474Z,15.67
2018-02-07T05:14:58.903Z,15.7
2018-02-07T05:15:59.368Z,15.71
2018-02-07T05:16:58.792Z,15.7
2018-02-07T05:17:59.262Z,15.72
2018-02-07T05:18:58.817Z,15.72
2018-02-07T05:19:59.225Z,15.73
2018-02-07T05:20:58.733Z,15.73
2018-02-07T05:21:59.176Z,15.73
2018-02-07T05:23:59.117Z,15.77
2018-02-07T05:24:58.542Z,15.76
2018-02-07T05:25:58.979Z,15.77
2018-02-07T05:26:58.522Z,15.78
2018-02-07T05:28:59.265Z,15.81
2018-02-07T05:29:58.702Z,15.8
2018-02-07T05:30:59.145Z,15.82
2018-02-07T05:31:58.573Z,15.82
2018-02-07T05:33:58.458Z,15.84
2018-02-07T05:34:58.894Z,15.84
2018-02-07T05:35:59.310Z,15.84
2018-02-07T05:36:58.754Z,15.86
2018-02-07T05:37:59.309Z,15.86
2018-02-07T05:38:58.745Z,15.85
2018-02-07T05:39:59.174Z,15.9
2018-02-07T05:40:58.611Z,15.88
2018-02-07T05:41:59.064Z,15.88
2018-02-07T05:42:58.514Z,15.89
2018-02-07T05:43:58.942Z,15.89
2018-02-07T05:44:58.392Z,15.92
2018-02-07T05:45:58.813Z,15.91
2018-02-07T05:46:59.272Z,15.95
2018-02-07T05:47:58.675Z,15.95
2018-02-07T05:48:59.136Z,15.96
2018-02-07T05:49:58.598Z,15.96
2018-02-07T05:50:59.063Z,15.97
2018-02-07T05:51:58.504Z,15.97
2018-02-07T05:52:58.961Z,15.99
2018-02-07T05:53:58.459Z,16.01
2018-02-07T05:54:58.877Z,16.02
2018-02-07T05:55:59.306Z,16.01
2018-02-07T05:56:58.713Z,16.04
2018-02-07T05:57:59.139Z,16.06
2018-02-07T05:58:58.599Z,16.07
2018-02-07T05:59:59.035Z,16.1
2018-02-07T06:00:58.482Z,16.1
2018-02-07T06:01:58.915Z,16.13
2018-02-07T06:02:59.335Z,16.12
2018-02-07T06:03:58.782Z,16.16
2018-02-07T06:04:59.213Z,16.17
2018-02-07T06:05:58.633Z,16.17
2018-02-07T06:06:59.066Z,16.2
2018-02-07T06:07:58.497Z,16.21
2018-02-07T06:08:58.919Z,16.22
2018-02-07T06:09:59.378Z,16.26
2018-02-07T06:10:58.820Z,16.28
2018-02-07T06:11:59.234Z,16.25
2018-02-07T06:12:58.680Z,16.29
2018-02-07T06:13:59.142Z,16.3
2018-02-07T06:14:58.610Z,16.31
2018-02-07T06:15:59.027Z,16.34
2018-02-07T06:16:58.467Z,16.34
2018-02-07T06:17:58.905Z,16.37
2018-02-07T06:18:59.356Z,16.37
2018-02-07T06:19:58.779Z,16.4
2018-02-07T06:20:59.300Z,16.4
2018-02-07T06:21:58.714Z,16.4
2018-02-07T06:22:59.155Z,16.41
2018-02-07T06:23:58.769Z,16.43
2018-02-07T06:24:59.198Z,16.44
2018-02-07T06:25:58.619Z,16.44
2018-02-07T06:26:59.058Z,16.46
2018-02-07T06:27:58.538Z,16.47
2018-02-07T06:28:59.106Z,16.5
2018-02-07T06:29:58.519Z,16.49
2018-02-07T06:30:58.967Z,16.51
2018-02-07T06:31:58.407Z,16.54
2018-02-07T06:32:58.831Z,16.52
2018-02-07T06:33:59.311Z,16.55
2018-02-07T06:34:58.747Z,16.56
2018-02-07T06:35:59.182Z,16.57
2018-02-07T06:36:58.600Z,16.58
2018-02-07T06:37:59.021Z,16.6
2018-02-07T06:38:58.491Z,16.6
2018-02-07T06:39:58.925Z,16.6
2018-02-07T06:40:58.363Z,16.63
2018-02-07T06:41:58.800Z,16.63
2018-02-07T06:42:59.228Z,16.64
2018-02-07T06:43:58.661Z,16.64
2018-02-07T06:44:59.099Z,16.66
2018-02-07T06:45:58.531Z,16.69
2018-02-07T06:46:58.966Z,16.67
2018-02-07T06:47:58.410Z,16.67
2018-02-07T06:48:58.840Z,16.69
2018-02-07T06:49:59.311Z,16.71
2018-02-07T06:50:58.768Z,16.73
2018-02-07T06:53:59.270Z,16.75
2018-02-07T06:54:58.720Z,16.78
2018-02-07T06:55:59.135Z,16.78
2018-02-07T06:56:58.604Z,16.78
2018-02-07T06:57:59.038Z,16.79
2018-02-07T06:58:58.476Z,16.8
2018-02-07T06:59:59.002Z,16.82
2018-02-07T07:00:58.447Z,16.8
2018-02-07T07:01:58.944Z,16.84
2018-02-07T07:02:58.370Z,16.84
2018-02-07T07:03:58.886Z,16.84
2018-02-07T07:04:58.401Z,16.85
2018-02-07T07:05:58.829Z,16.87
2018-02-07T07:06:59.519Z,16.87
2018-02-07T07:07:58.940Z,16.86
2018-02-07T07:08:58.366Z,16.86
2018-02-07T07:09:58.790Z,16.87
2018-02-07T07:10:59.253Z,16.88
2018-02-07T07:11:58.703Z,16.89
2018-02-07T07:12:59.127Z,16.9
2018-02-07T07:13:58.555Z,16.89
2018-02-07T07:14:59.022Z,16.9
2018-02-07T07:15:58.553Z,16.9
2018-02-07T07:16:58.995Z,16.89
2018-02-07T07:17:58.424Z,16.89
2018-02-07T07:19:59.150Z,16.9
2018-02-07T07:20:58.569Z,16.89
2018-02-07T07:21:59.009Z,16.87
2018-02-07T07:22:58.455Z,16.9
2018-02-07T07:23:58.899Z,16.89
2018-02-07T07:24:58.577Z,16.91
2018-02-07T07:25:58.998Z,16.87
2018-02-07T07:26:58.429Z,16.86
2018-02-07T07:27:58.857Z,16.91
2018-02-07T07:28:59.310Z,16.9
2018-02-07T07:29:58.750Z,16.88
2018-02-07T07:30:59.186Z,16.89
2018-02-07T07:31:58.620Z,16.86
2018-02-07T07:32:59.077Z,16.88
2018-02-07T07:33:58.513Z,16.85
2018-02-07T07:34:58.944Z,16.86
2018-02-07T07:36:58.567Z,16.85
2018-02-07T07:37:59.032Z,16.86
2018-02-07T07:38:58.464Z,16.85
2018-02-07T07:39:58.894Z,16.82
2018-02-07T07:40:58.321Z,16.85
2018-02-07T07:41:58.785Z,16.82
2018-02-07T07:42:59.168Z,16.82
2018-02-07T07:43:58.619Z,16.82
2018-02-07T07:44:59.044Z,16.8
2018-02-07T07:45:58.462Z,16.81
2018-02-07T07:46:58.900Z,16.79
2018-02-07T07:47:58.344Z,16.79
2018-02-07T07:48:58.774Z,16.8
2018-02-07T07:49:59.327Z,16.78
2018-02-07T07:50:58.756Z,16.78
2018-02-07T07:51:59.179Z,16.77
2018-02-07T07:52:58.627Z,16.76
2018-02-07T07:54:59.372Z,16.81
2018-02-07T07:55:58.830Z,16.8
2018-02-07T07:56:59.243Z,16.79
2018-02-07T07:57:58.675Z,16.79
2018-02-07T07:58:59.112Z,16.79
2018-02-07T07:59:58.578Z,16.8
2018-02-07T08:00:59.133Z,16.79
2018-02-07T08:01:58.690Z,16.8
2018-02-07T08:02:59.106Z,16.82
2018-02-07T08:03:58.558Z,16.8
2018-02-07T08:04:59.014Z,16.82
2018-02-07T08:06:58.774Z,16.82
2018-02-07T08:07:59.223Z,16.86
2018-02-07T08:08:58.636Z,16.84
2018-02-07T08:09:59.096Z,16.81
2018-02-07T08:10:58.578Z,16.81
2018-02-07T08:11:59.004Z,16.79
2018-02-07T08:12:58.491Z,16.75
2018-02-07T08:13:58.936Z,16.76
2018-02-07T08:14:58.384Z,16.74
2018-02-07T08:15:58.838Z,16.74
2018-02-07T08:16:59.267Z,16.73
2018-02-07T08:17:58.734Z,16.72
2018-02-07T08:18:59.195Z,16.73
2018-02-07T08:19:58.651Z,16.71
2018-02-07T08:20:59.111Z,16.7
2018-02-07T08:21:58.532Z,16.7
2018-02-07T08:22:58.969Z,16.66
2018-02-07T08:23:58.425Z,16.65
2018-02-07T08:24:58.902Z,16.67
2018-02-07T08:25:58.564Z,16.65
2018-02-07T08:26:59.004Z,16.65
2018-02-07T08:27:58.707Z,16.64
2018-02-07T08:28:59.130Z,16.62
2018-02-07T08:29:58.541Z,16.6
2018-02-07T08:30:59.007Z,16.62
2018-02-07T08:31:58.476Z,16.61
2018-02-07T08:32:58.999Z,16.61
2018-02-07T08:33:58.446Z,16.61
2018-02-07T08:34:58.875Z,16.6
2018-02-07T08:35:58.343Z,16.57
2018-02-07T08:36:58.781Z,16.59
2018-02-07T08:37:59.348Z,16.56
2018-02-07T08:38:58.768Z,16.58
2018-02-07T08:39:59.231Z,16.56
2018-02-07T08:40:58.678Z,16.55
2018-02-07T08:41:59.120Z,16.55
2018-02-07T08:42:58.569Z,16.55
2018-02-07T08:43:59.017Z,16.55
2018-02-07T08:44:58.458Z,16.54
2018-02-07T08:45:58.915Z,16.56
2018-02-07T08:46:58.321Z,16.54
2018-02-07T08:47:58.791Z,16.51
2018-02-07T08:48:59.340Z,16.51
2018-02-07T08:49:58.782Z,16.51
2018-02-07T08:50:59.269Z,16.51
2018-02-07T08:51:58.723Z,16.5
2018-02-07T08:52:59.179Z,16.51
2018-02-07T08:53:58.650Z,16.51
2018-02-07T08:54:59.079Z,16.52
2018-02-07T08:55:58.579Z,16.51
2018-02-07T08:56:59.108Z,16.51
2018-02-07T08:57:58.564Z,16.51
2018-02-07T08:58:59.019Z,16.52
2018-02-07T08:59:58.455Z,16.55
2018-02-07T09:00:58.957Z,16.52
2018-02-07T09:01:58.389Z,16.52
2018-02-07T09:02:58.838Z,16.51
2018-02-07T09:03:59.259Z,16.51
2018-02-07T09:04:58.811Z,16.52
2018-02-07T09:05:59.275Z,16.52
2018-02-07T09:06:58.717Z,16.54
2018-02-07T09:07:59.166Z,16.52
2018-02-07T09:08:58.625Z,16.52
2018-02-07T09:09:59.135Z,16.54
2018-02-07T09:10:58.808Z,16.54
2018-02-07T09:11:59.217Z,16.54
2018-02-07T09:12:58.665Z,16.54
2018-02-07T09:13:59.120Z,16.54
2018-02-07T09:14:58.567Z,16.57
2018-02-07T09:15:59.046Z,16.52
2018-02-07T09:16:58.505Z,16.57
2018-02-07T09:17:58.930Z,16.55
2018-02-07T09:18:58.352Z,16.55
2018-02-07T09:19:58.800Z,16.56
2018-02-07T09:20:59.236Z,16.56
2018-02-07T09:21:58.708Z,16.55
2018-02-07T09:22:59.167Z,16.57
2018-02-07T09:23:58.614Z,16.59
2018-02-07T09:24:59.056Z,16.58
2018-02-07T09:25:58.513Z,16.58
2018-02-07T09:26:59.189Z,16.61
2018-02-07T09:27:58.706Z,16.59
2018-02-07T09:28:59.162Z,16.6
2018-02-07T09:29:58.594Z,16.59
2018-02-07T09:30:59.038Z,16.6
2018-02-07T09:31:58.507Z,16.61
2018-02-07T09:32:59.002Z,16.64
2018-02-07T09:33:58.419Z,16.63
2018-02-07T09:34:58.895Z,16.61
2018-02-07T09:35:58.356Z,16.63
2018-02-07T09:36:58.803Z,16.63
2018-02-07T09:37:59.277Z,16.65
2018-02-07T09:38:58.716Z,16.64
2018-02-07T09:39:59.167Z,16.64
2018-02-07T09:40:58.636Z,16.64
2018-02-07T09:41:59.097Z,16.66
2018-02-07T09:42:58.573Z,16.64
2018-02-07T09:43:58.994Z,16.67
2018-02-07T09:44:58.416Z,16.7
2018-02-07T09:45:58.836Z,16.66
2018-02-07T09:46:59.260Z,16.7
2018-02-07T09:47:58.716Z,16.69
2018-02-07T09:48:59.153Z,16.69
2018-02-07T09:49:58.627Z,16.7
2018-02-07T09:50:59.105Z,16.7
2018-02-07T09:51:58.532Z,16.7
2018-02-07T09:52:58.989Z,16.73
2018-02-07T09:53:58.475Z,16.71
2018-02-07T09:54:58.901Z,16.72
2018-02-07T09:55:58.404Z,16.73
2018-02-07T09:56:58.821Z,16.72
2018-02-07T09:57:59.275Z,16.76
2018-02-07T09:58:58.716Z,16.74
2018-02-07T09:59:59.176Z,16.73
2018-02-07T10:00:58.667Z,16.78
2018-02-07T10:01:59.153Z,16.76
2018-02-07T10:02:58.608Z,16.76
2018-02-07T10:03:59.058Z,16.77
2018-02-07T10:04:58.503Z,16.79
2018-02-07T10:05:58.930Z,16.79
2018-02-07T10:06:58.500Z,16.77
2018-02-07T10:07:58.950Z,16.78
2018-02-07T10:08:58.414Z,16.79
2018-02-07T10:09:58.885Z,16.79
2018-02-07T10:10:58.328Z,16.82
2018-02-07T10:11:58.784Z,16.82
2018-02-07T10:12:59.218Z,16.84
2018-02-07T10:13:58.811Z,16.82
2018-02-07T10:14:58.374Z,16.82
2018-02-07T10:15:58.833Z,16.84
2018-02-07T10:16:58.267Z,16.84
2018-02-07T10:17:58.726Z,16.82
2018-02-07T10:18:59.198Z,16.86
2018-02-07T10:19:58.650Z,16.84
2018-02-07T10:20:59.056Z,16.86
2018-02-07T10:21:58.495Z,16.86
2018-02-07T10:22:59.036Z,16.85
2018-02-07T10:23:58.475Z,16.86
2018-02-07T10:24:58.915Z,16.84
2018-02-07T10:25:58.404Z,16.87
2018-02-07T10:26:59.050Z,16.87
2018-02-07T10:27:58.468Z,16.87
2018-02-07T10:28:58.892Z,16.86
2018-02-07T10:29:58.325Z,16.85
2018-02-07T10:30:58.905Z,16.88
2018-02-07T10:31:58.324Z,16.87
2018-02-07T10:32:58.740Z,16.86
2018-02-07T10:33:59.203Z,16.87
2018-02-07T10:34:58.706Z,16.87
2018-02-07T10:35:59.135Z,16.87
2018-02-07T10:36:58.649Z,16.87
2018-02-07T10:37:59.089Z,16.88
2018-02-07T10:38:58.531Z,16.89
2018-02-07T10:39:58.979Z,16.91
2018-02-07T10:40:58.427Z,16.91
2018-02-07T10:41:58.909Z,16.93
2018-02-07T10:42:58.373Z,16.91
2018-02-07T10:43:58.813Z,16.93
2018-02-07T10:44:59.266Z,16.95
2018-02-07T10:45:58.741Z,16.94
2018-02-07T10:46:59.182Z,16.94
2018-02-07T10:47:58.643Z,16.95
2018-02-07T10:48:59.061Z,16.95
2018-02-07T10:49:58.508Z,16.98
2018-02-07T10:50:58.952Z,16.95
2018-02-07T10:51:58.404Z,16.98
2018-02-07T10:52:58.918Z,16.99
2018-02-07T10:53:58.375Z,16.98
2018-02-07T10:54:58.835Z,17.01
2018-02-07T10:55:58.270Z,16.99
2018-02-07T10:56:58.764Z,17.01
2018-02-07T10:57:59.240Z,17
2018-02-07T10:58:58.660Z,17.03
2018-02-07T10:59:59.097Z,17.05
2018-02-07T11:00:58.561Z,17.04
2018-02-07T11:01:59.031Z,17.03
2018-02-07T11:02:58.488Z,17.04
2018-02-07T11:03:58.898Z,17.06
2018-02-07T11:04:58.354Z,17.05
2018-02-07T11:05:58.807Z,17.05
2018-02-07T11:06:59.232Z,17.07
2018-02-07T11:07:58.677Z,17.07
2018-02-07T11:08:59.146Z,17.1
2018-02-07T11:09:58.721Z,17.08
2018-02-07T11:10:59.162Z,17.1
2018-02-07T11:11:58.554Z,17.07
2018-02-07T11:12:59.014Z,17.1
2018-02-07T11:13:58.499Z,17.09
2018-02-07T11:14:58.941Z,17.11
2018-02-07T11:15:58.400Z,17.11
2018-02-07T11:16:58.822Z,17.11
2018-02-07T11:17:58.350Z,17.13
2018-02-07T11:18:58.894Z,17.11
2018-02-07T11:19:58.330Z,17.14
2018-02-07T11:20:58.802Z,17.13
2018-02-07T11:21:59.233Z,17.13
2018-02-07T11:22:58.663Z,17.16
2018-02-07T11:23:59.148Z,17.14
2018-02-07T11:24:58.624Z,17.15
2018-02-07T11:25:59.065Z,17.13
2018-02-07T11:26:58.492Z,17.15
2018-02-07T11:27:59.194Z,17.13
2018-02-07T11:28:58.659Z,17.16
2018-02-07T11:29:59.089Z,17.16
2018-02-07T11:30:58.512Z,17.17
2018-02-07T11:31:58.988Z,17.15
2018-02-07T11:32:58.413Z,17.15
2018-02-07T11:33:58.868Z,17.16
2018-02-07T11:34:58.308Z,17.14
2018-02-07T11:35:58.782Z,17.16
2018-02-07T11:36:59.181Z,17.17
2018-02-07T11:37:58.625Z,17.16
2018-02-07T11:38:59.364Z,17.17
2018-02-07T11:39:58.854Z,17.15
2018-02-07T11:40:58.310Z,17.17
2018-02-07T11:41:58.758Z,17.21
2018-02-07T11:42:59.176Z,17.19
2018-02-07T11:43:58.654Z,17.2
2018-02-07T11:44:59.106Z,17.19
2018-02-07T11:45:58.562Z,17.18
2018-02-07T11:46:59.013Z,17.19
2018-02-07T11:47:58.489Z,17.16
2018-02-07T11:48:58.959Z,17.18
2018-02-07T11:49:58.383Z,17.15
2018-02-07T11:50:58.860Z,17.18
2018-02-07T11:51:58.237Z,17.16
2018-02-07T11:52:58.679Z,17.16
2018-02-07T11:53:59.129Z,17.16
2018-02-07T11:54:58.636Z,17.15
2018-02-07T11:55:59.093Z,17.16
2018-02-07T11:56:58.546Z,17.14
2018-02-07T11:57:59.003Z,17.16
2018-02-07T11:58:58.495Z,17.16
2018-02-07T11:59:58.910Z,17.16
2018-02-07T12:00:58.361Z,17.15
2018-02-07T12:01:58.799Z,17.16
2018-02-07T12:02:58.246Z,17.15
2018-02-07T12:03:58.714Z,17.17
2018-02-07T12:04:59.163Z,17.16
2018-02-07T12:05:58.617Z,17.15
2018-02-07T12:06:59.072Z,17.16
2018-02-07T12:07:58.555Z,17.13
2018-02-07T12:08:58.963Z,17.16
2018-02-07T12:09:58.427Z,17.17
2018-02-07T12:10:58.911Z,17.17
2018-02-07T12:11:58.329Z,17.15
2018-02-07T12:12:58.769Z,17.16
2018-02-07T12:13:59.191Z,17.17
2018-02-07T12:14:58.625Z,17.18
2018-02-07T12:15:59.124Z,17.18
2018-02-07T12:17:58.811Z,17.19
2018-02-07T12:18:58.240Z,17.17
2018-02-07T12:19:58.702Z,17.18
2018-02-07T12:20:59.114Z,17.19
2018-02-07T12:21:58.613Z,17.2
2018-02-07T12:22:59.043Z,17.19
2018-02-07T12:23:58.471Z,17.19
2018-02-07T12:24:58.936Z,17.19
2018-02-07T12:25:58.648Z,17.21
2018-02-07T12:26:59.097Z,17.19
2018-02-07T12:27:58.525Z,17.18
2018-02-07T12:28:59.162Z,17.19
2018-02-07T12:29:58.606Z,17.18
2018-02-07T12:30:59.082Z,17.19
2018-02-07T12:31:58.582Z,17.2
2018-02-07T12:32:59.042Z,17.18
2018-02-07T12:33:58.488Z,17.19
2018-02-07T12:34:58.939Z,17.21
2018-02-07T12:35:58.385Z,17.2
2018-02-07T12:36:58.870Z,17.2
2018-02-07T12:37:58.458Z,17.19
2018-02-07T12:38:58.905Z,17.2
2018-02-07T12:39:58.364Z,17.21
2018-02-07T12:40:58.815Z,17.19
2018-02-07T12:41:58.242Z,17.2
2018-02-07T12:42:58.693Z,17.21
2018-02-07T12:43:59.161Z,17.21
2018-02-07T12:44:58.606Z,17.2
2018-02-07T12:45:59.051Z,17.21
2018-02-07T12:46:58.462Z,17.21
2018-02-07T12:47:58.882Z,17.24
2018-02-07T12:48:58.338Z,17.21
2018-02-07T12:49:58.751Z,17.23
2018-02-07T12:50:59.218Z,17.23
2018-02-07T12:51:58.681Z,17.22
2018-02-07T12:52:59.373Z,17.22
2018-02-07T12:53:58.777Z,17.22
2018-02-07T12:54:58.213Z,17.22
2018-02-07T12:55:58.695Z,17.22
2018-02-07T12:56:59.104Z,17.22
2018-02-07T12:58:59.086Z,17.22
2018-02-07T12:59:58.555Z,17.23
2018-02-07T13:00:58.999Z,17.23
2018-02-07T13:01:58.416Z,17.23
2018-02-07T13:02:58.970Z,17.24
2018-02-07T13:03:58.407Z,17.24
2018-02-07T13:04:58.822Z,17.23
2018-02-07T13:05:58.310Z,17.24
2018-02-07T13:06:58.818Z,17.23
2018-02-07T13:07:58.416Z,17.25
2018-02-07T13:08:58.841Z,17.24
2018-02-07T13:09:58.264Z,17.24